Wetterdaten: Dienstag, 28.12.2010
Datum Zeit Temp. A. Feuchte A. Luftdruck Regen Wind Richtung Richtung Sonnenschein UV Solar Windben
28.12.2010 00:00 -1,1 C 92 % 1019,8 hPa 0,0 mm 0,0 km/h (0 Bft) N 0 0 min 0 UV-I 0 W/m 0,0 km/h (0 Bft)
28.12.2010 00:10 -1,1 C 93 % 1019,7 hPa 0,0 mm 0,0 km/h (0 Bft) W-SW 247 0 min 0 UV-I 0 W/m 1,6 km/h (1 Bft)
28.12.2010 00:20 -1,1 C 92 % 1019,7 hPa 0,0 mm 0,0 km/h (0 Bft) W-SW 247 0 min 0 UV-I 0 W/m 1,6 km/h (1 Bft)
28.12.2010 00:30 -1,2 C 92 % 1019,7 hPa 0,0 mm 0,0 km/h (0 Bft) N 0 0 min 0 UV-I 0 W/m 0,0 km/h (0 Bft)
28.12.2010 00:40 -1,2 C 92 % 1019,6 hPa 0,0 mm 0,0 km/h (0 Bft) N 0 0 min 0 UV-I 0 W/m 0,0 km/h (0 Bft)
28.12.2010 00:50 -1,2 C 92 % 1019,5 hPa 0,0 mm 0,0 km/h (0 Bft) N 0 0 min 0 UV-I 0 W/m 0,0 km/h (0 Bft)
28.12.2010 01:00 -1,2 C 92 % 1019,7 hPa 0,0 mm 0,0 km/h (0 Bft) W-SW 247 0 min 0 UV-I 0 W/m 1,6 km/h (1 Bft)
28.12.2010 01:10 -1,3 C 92 % 1019,7 hPa 0,0 mm 0,0 km/h (0 Bft) N 0 0 min 0 UV-I 0 W/m 0,0 km/h (0 Bft)
28.12.2010 01:20 -1,3 C 92 % 1019,7 hPa 0,0 mm 0,0 km/h (0 Bft) N 0 0 min 0 UV-I 0 W/m 0,0 km/h (0 Bft)
28.12.2010 01:30 -1,3 C 92 % 1019,8 hPa 0,0 mm 0,0 km/h (0 Bft) N 0 0 min 0 UV-I 0 W/m 0,0 km/h (0 Bft)
28.12.2010 01:40 -1,3 C 92 % 1019,6 hPa 0,0 mm 0,0 km/h (0 Bft) N 0 0 min 0 UV-I 0 W/m 0,0 km/h (0 Bft)
28.12.2010 01:50 -1,3 C 93 % 1019,5 hPa 0,0 mm 0,0 km/h (0 Bft) N 0 0 min 0 UV-I 0 W/m 0,0 km/h (0 Bft)
28.12.2010 02:00 -1,4 C 93 % 1019,5 hPa 0,0 mm 0,0 km/h (0 Bft) W-SW 247 0 min 0 UV-I 0 W/m 1,6 km/h (1 Bft)
28.12.2010 02:10 -1,4 C 92 % 1019,5 hPa 0,0 mm 0,0 km/h (0 Bft) W-SW 247 0 min 0 UV-I 0 W/m 1,6 km/h (1 Bft)
28.12.2010 02:20 -1,4 C 92 % 1019,5 hPa 0,0 mm 0,0 km/h (0 Bft) W-SW 247 0 min 0 UV-I 0 W/m 1,6 km/h (1 Bft)
28.12.2010 02:30 -1,4 C 92 % 1019,5 hPa 0,0 mm 0,0 km/h (0 Bft) N 0 0 min 0 UV-I 0 W/m 0,0 km/h (0 Bft)
28.12.2010 02:40 -1,5 C 92 % 1019,6 hPa 0,0 mm 0,0 km/h (0 Bft) W-SW 247 0 min 0 UV-I 0 W/m 1,6 km/h (1 Bft)
28.12.2010 02:50 -1,5 C 92 % 1019,4 hPa 0,0 mm 0,0 km/h (0 Bft) W-SW 247 0 min 0 UV-I 0 W/m 1,6 km/h (1 Bft)
28.12.2010 03:00 -1,5 C 92 % 1019,5 hPa 0,0 mm 0,0 km/h (0 Bft) S-SO 157 0 min 0 UV-I 0 W/m 1,6 km/h (1 Bft)
28.12.2010 03:10 -1,5 C 92 % 1019,4 hPa 0,0 mm 0,0 km/h (0 Bft) S-SO 157 0 min 0 UV-I 0 W/m 1,6 km/h (1 Bft)
28.12.2010 03:20 -1,5 C 92 % 1019,4 hPa 0,0 mm 0,0 km/h (0 Bft) S-SO 157 0 min 0 UV-I 0 W/m 1,6 km/h (1 Bft)
28.12.2010 03:30 -1,5 C 92 % 1019,3 hPa 0,0 mm 0,0 km/h (0 Bft) S-SO 157 0 min 0 UV-I 0 W/m 1,6 km/h (1 Bft)
28.12.2010 03:40 -1,5 C 92 % 1019,3 hPa 0,0 mm 0,0 km/h (0 Bft) O 90 0 min 0 UV-I 0 W/m 3,2 km/h (1 Bft)
28.12.2010 03:50 -1,5 C 92 % 1019,2 hPa 0,0 mm 0,0 km/h (0 Bft) O 90 0 min 0 UV-I 0 W/m 1,6 km/h (1 Bft)
28.12.2010 04:00 -1,6 C 93 % 1019,3 hPa 0,0 mm 0,0 km/h (0 Bft) O 90 0 min 0 UV-I 0 W/m 1,6 km/h (1 Bft)
28.12.2010 04:10 -1,6 C 93 % 1019,2 hPa 0,0 mm 0,0 km/h (0 Bft) O 90 0 min 0 UV-I 0 W/m 3,2 km/h (1 Bft)
28.12.2010 04:20 -1,6 C 93 % 1019,1 hPa 0,0 mm 0,0 km/h (0 Bft) O 90 0 min 0 UV-I 0 W/m 1,6 km/h (1 Bft)
28.12.2010 04:30 -1,6 C 93 % 1019,1 hPa 0,0 mm 0,0 km/h (0 Bft) O 90 0 min 0 UV-I 0 W/m 1,6 km/h (1 Bft)
28.12.2010 04:40 -1,7 C 93 % 1019,2 hPa 0,0 mm 0,0 km/h (0 Bft) O 90 0 min 0 UV-I 0 W/m 3,2 km/h (1 Bft)
28.12.2010 04:50 -1,7 C 93 % 1019,1 hPa 0,0 mm 0,0 km/h (0 Bft) O 90 0 min 0 UV-I 0 W/m 1,6 km/h (1 Bft)
28.12.2010 05:00 -1,7 C 93 % 1019,3 hPa 0,0 mm 0,0 km/h (0 Bft) O 90 0 min 0 UV-I 0 W/m 3,2 km/h (1 Bft)
28.12.2010 05:10 -1,7 C 93 % 1019,3 hPa 0,0 mm 0,0 km/h (0 Bft) O 90 0 min 0 UV-I 0 W/m 3,2 km/h (1 Bft)
28.12.2010 05:20 -1,7 C 93 % 1019,4 hPa 0,0 mm 0,0 km/h (0 Bft) O 90 0 min 0 UV-I 0 W/m 3,2 km/h (1 Bft)
28.12.2010 05:30 -1,6 C 93 % 1019,4 hPa 0,0 mm 0,0 km/h (0 Bft) O-SO 112 0 min 0 UV-I 0 W/m 4,8 km/h (1 Bft)
28.12.2010 05:40 -1,6 C 93 % 1019,4 hPa 0,0 mm 0,0 km/h (0 Bft) O-SO 112 0 min 0 UV-I 0 W/m 1,6 km/h (1 Bft)
28.12.2010 05:50 -1,6 C 93 % 1019,3 hPa 0,0 mm 0,0 km/h (0 Bft) O-SO 112 0 min 0 UV-I 0 W/m 3,2 km/h (1 Bft)
28.12.2010 06:00 -1,6 C 93 % 1019,3 hPa 0,0 mm 0,0 km/h (0 Bft) O-SO 112 0 min 0 UV-I 0 W/m 3,2 km/h (1 Bft)
28.12.2010 06:10 -1,6 C 93 % 1019,1 hPa 0,0 mm 1,6 km/h (1 Bft) O 90 0 min 0 UV-I 0 W/m 4,8 km/h (1 Bft)
28.12.2010 06:20 -1,6 C 93 % 1018,9 hPa 0,0 mm 0,0 km/h (0 Bft) O 90 0 min 0 UV-I 0 W/m 4,8 km/h (1 Bft)
28.12.2010 06:30 -1,6 C 93 % 1018,8 hPa 0,0 mm 1,6 km/h (1 Bft) O-SO 112 0 min 0 UV-I 0 W/m 6,4 km/h (2 Bft)
28.12.2010 06:40 -1,6 C 93 % 1018,7 hPa 0,0 mm 1,6 km/h (1 Bft) O 90 0 min 0 UV-I 0 W/m 6,4 km/h (2 Bft)
28.12.2010 06:50 -1,6 C 93 % 1018,5 hPa 0,0 mm 3,2 km/h (1 Bft) O 90 0 min 0 UV-I 0 W/m 11,3 km/h (2 Bft)
28.12.2010 07:00 -1,6 C 93 % 1019,1 hPa 0,0 mm 1,6 km/h (1 Bft) O-NO 67 0 min 0 UV-I 0 W/m 8,0 km/h (2 Bft)
28.12.2010 07:10 -1,6 C 93 % 1019,3 hPa 0,0 mm 0,0 km/h (0 Bft) O 90 0 min 0 UV-I 0 W/m 3,2 km/h (1 Bft)
28.12.2010 07:20 -1,6 C 93 % 1019,3 hPa 0,0 mm 1,6 km/h (1 Bft) O 90 0 min 0 UV-I 0 W/m 6,4 km/h (2 Bft)
28.12.2010 07:30 -1,6 C 93 % 1019,2 hPa 0,0 mm 1,6 km/h (1 Bft) O 90 0 min 0 UV-I 0 W/m 6,4 km/h (2 Bft)
28.12.2010 07:40 -1,7 C 93 % 1019,0 hPa 0,0 mm 3,2 km/h (1 Bft) O 90 0 min 0 UV-I 0 W/m 8,0 km/h (2 Bft)
28.12.2010 07:50 -1,7 C 93 % 1019,1 hPa 0,0 mm 3,2 km/h (1 Bft) O 90 0 min 0 UV-I 0 W/m 9,7 km/h (2 Bft)
28.12.2010 08:00 -1,7 C 93 % 1019,1 hPa 0,0 mm 2,7 km/h (1 Bft) O 94 0 min 0 UV-I 0 W/m 8,0 km/h (2 Bft)
28.12.2010 08:10 -1,7 C 93 % 1019,3 hPa 0,0 mm 1,6 km/h (1 Bft) O 90 0 min 0 UV-I 0 W/m 6,4 km/h (2 Bft)
28.12.2010 08:20 -1,7 C 93 % 1019,4 hPa 0,0 mm 1,6 km/h (1 Bft) O 90 0 min 0 UV-I 0 W/m 4,8 km/h (1 Bft)
28.12.2010 08:30 -1,7 C 92 % 1019,4 hPa 0,0 mm 1,6 km/h (1 Bft) O-SO 112 0 min 0 UV-I 5 W/m 4,8 km/h (1 Bft)
28.12.2010 08:40 -1,8 C 92 % 1019,4 hPa 0,0 mm 1,6 km/h (1 Bft) O-SO 112 0 min 0 UV-I 9 W/m 6,4 km/h (2 Bft)
28.12.2010 08:50 -1,8 C 92 % 1019,3 hPa 0,0 mm 1,6 km/h (1 Bft) O-SO 112 10 min 0 UV-I 19 W/m 6,4 km/h (2 Bft)
28.12.2010 09:00 -1,8 C 92 % 1019,3 hPa 0,0 mm 3,2 km/h (1 Bft) O 90 10 min 0 UV-I 30 W/m 9,7 km/h (2 Bft)
28.12.2010 09:10 -1,8 C 93 % 1019,6 hPa 0,0 mm 4,8 km/h (1 Bft) O-SO 112 0 min 0 UV-I 32 W/m 9,7 km/h (2 Bft)
28.12.2010 09:20 -1,8 C 92 % 1019,5 hPa 0,0 mm 3,2 km/h (1 Bft) O-SO 112 0 min 0 UV-I 30 W/m 9,7 km/h (2 Bft)
28.12.2010 09:30 -1,8 C 92 % 1019,7 hPa 0,0 mm 3,2 km/h (1 Bft) O-SO 112 0 min 0 UV-I 28 W/m 9,7 km/h (2 Bft)
28.12.2010 09:40 -1,8 C 92 % 1019,7 hPa 0,0 mm 3,2 km/h (1 Bft) O-SO 112 0 min 0 UV-I 35 W/m 8,0 km/h (2 Bft)
28.12.2010 09:50 -1,9 C 92 % 1019,8 hPa 0,0 mm 3,2 km/h (1 Bft) O-SO 112 0 min 0 UV-I 40 W/m 8,0 km/h (2 Bft)
28.12.2010 10:00 -1,9 C 92 % 1019,9 hPa 0,0 mm 3,2 km/h (1 Bft) O 90 0 min 0 UV-I 46 W/m 6,4 km/h (2 Bft)
28.12.2010 10:10 -1,9 C 92 % 1019,8 hPa 0,0 mm 1,6 km/h (1 Bft) O 90 0 min 0 UV-I 81 W/m 6,4 km/h (2 Bft)
28.12.2010 10:20 -1,9 C 92 % 1019,9 hPa 0,0 mm 3,2 km/h (1 Bft) O 90 0 min 0 UV-I 60 W/m 8,0 km/h (2 Bft)
28.12.2010 10:30 -1,9 C 92 % 1019,9 hPa 0,0 mm 3,2 km/h (1 Bft) O 90 0 min 0 UV-I 63 W/m 11,3 km/h (2 Bft)
28.12.2010 10:40 -1,8 C 92 % 1019,9 hPa 0,0 mm 4,8 km/h (1 Bft) O-SO 112 0 min 0 UV-I 67 W/m 9,7 km/h (2 Bft)
28.12.2010 10:50 -1,8 C 92 % 1020,0 hPa 0,0 mm 3,2 km/h (1 Bft) O 90 0 min 0 UV-I 67 W/m 11,3 km/h (2 Bft)
28.12.2010 11:00 -1,7 C 92 % 1020,0 hPa 0,0 mm 4,8 km/h (1 Bft) O-SO 112 0 min 0 UV-I 69 W/m 14,5 km/h (3 Bft)
28.12.2010 11:10 -1,6 C 92 % 1019,9 hPa 0,0 mm 6,4 km/h (2 Bft) O-SO 112 0 min 0 UV-I 83 W/m 14,5 km/h (3 Bft)
28.12.2010 11:20 -1,5 C 92 % 1020,1 hPa 0,0 mm 3,2 km/h (1 Bft) O-SO 112 0 min 1 UV-I 100 W/m 9,7 km/h (2 Bft)
28.12.2010 11:30 -1,3 C 92 % 1020,0 hPa 0,0 mm 4,8 km/h (1 Bft) O-SO 112 0 min 1 UV-I 114 W/m 11,3 km/h (2 Bft)
28.12.2010 11:40 -1,2 C 92 % 1020,0 hPa 0,0 mm 4,8 km/h (1 Bft) O-SO 112 0 min 1 UV-I 128 W/m 11,3 km/h (2 Bft)
28.12.2010 11:50 -1,1 C 92 % 1020,1 hPa 0,0 mm 4,8 km/h (1 Bft) O-SO 112 0 min 1 UV-I 134 W/m 14,5 km/h (3 Bft)
28.12.2010 12:00 -0,9 C 92 % 1020,1 hPa 0,0 mm 3,2 km/h (1 Bft) O 90 0 min 1 UV-I 141 W/m 9,7 km/h (2 Bft)
28.12.2010 12:10 -0,7 C 92 % 1020,1 hPa 0,0 mm 4,8 km/h (1 Bft) O-SO 112 0 min 1 UV-I 139 W/m 11,3 km/h (2 Bft)
28.12.2010 12:20 -0,6 C 91 % 1020,1 hPa 0,0 mm 4,8 km/h (1 Bft) O-SO 112 10 min 1 UV-I 188 W/m 9,7 km/h (2 Bft)
28.12.2010 12:30 -0,5 C 91 % 1020,1 hPa 0,0 mm 4,8 km/h (1 Bft) O-SO 112 10 min 1 UV-I 216 W/m 9,7 km/h (2 Bft)
28.12.2010 12:40 -0,4 C 91 % 1020,2 hPa 0,0 mm 3,2 km/h (1 Bft) O-NO 67 10 min 1 UV-I 211 W/m 8,0 km/h (2 Bft)
28.12.2010 12:50 -0,2 C 91 % 1020,2 hPa 0,0 mm 3,2 km/h (1 Bft) O 90 10 min 1 UV-I 183 W/m 6,4 km/h (2 Bft)
28.12.2010 13:00 -0,1 C 90 % 1020,1 hPa 0,0 mm 3,2 km/h (1 Bft) O 90 10 min 1 UV-I 158 W/m 9,7 km/h (2 Bft)
28.12.2010 13:10 -0,1 C 90 % 1020,1 hPa 0,0 mm 3,2 km/h (1 Bft) O 90 0 min 1 UV-I 109 W/m 6,4 km/h (2 Bft)
28.12.2010 13:20 -0,2 C 89 % 1020,1 hPa 0,0 mm 4,8 km/h (1 Bft) O-SO 112 0 min 1 UV-I 104 W/m 14,5 km/h (3 Bft)
28.12.2010 13:30 -0,3 C 89 % 1020,1 hPa 0,0 mm 6,4 km/h (2 Bft) O 90 0 min 0 UV-I 97 W/m 16,1 km/h (3 Bft)
28.12.2010 13:40 -0,4 C 88 % 1020,3 hPa 0,0 mm 6,4 km/h (2 Bft) O-SO 112 0 min 0 UV-I 104 W/m 17,7 km/h (3 Bft)
28.12.2010 13:50 -0,6 C 88 % 1020,3 hPa 0,0 mm 4,8 km/h (1 Bft) O-SO 112 0 min 0 UV-I 97 W/m 16,1 km/h (3 Bft)
28.12.2010 14:00 -0,6 C 88 % 1020,3 hPa 0,0 mm 4,8 km/h (1 Bft) O-SO 112 0 min 0 UV-I 95 W/m 16,1 km/h (3 Bft)
28.12.2010 14:10 -0,7 C 87 % 1020,3 hPa 0,0 mm 4,8 km/h (1 Bft) O-SO 112 0 min 0 UV-I 95 W/m 12,9 km/h (3 Bft)
28.12.2010 14:20 -0,7 C 87 % 1020,4 hPa 0,0 mm 4,8 km/h (1 Bft) O-SO 112 0 min 0 UV-I 102 W/m 16,1 km/h (3 Bft)
28.12.2010 14:30 -0,7 C 87 % 1020,5 hPa 0,0 mm 3,2 km/h (1 Bft) O 90 10 min 0 UV-I 107 W/m 11,3 km/h (2 Bft)
28.12.2010 14:40 -0,7 C 87 % 1020,5 hPa 0,0 mm 4,8 km/h (1 Bft) O-SO 112 10 min 0 UV-I 104 W/m 14,5 km/h (3 Bft)
28.12.2010 14:50 -0,7 C 86 % 1020,5 hPa 0,0 mm 4,8 km/h (1 Bft) O-SO 112 10 min 0 UV-I 86 W/m 9,7 km/h (2 Bft)
28.12.2010 15:00 -0,7 C 86 % 1020,5 hPa 0,0 mm 3,2 km/h (1 Bft) O-SO 112 0 min 0 UV-I 74 W/m 17,7 km/h (3 Bft)
28.12.2010 15:10 -0,7 C 86 % 1020,5 hPa 0,0 mm 6,4 km/h (2 Bft) O-SO 112 10 min 0 UV-I 74 W/m 16,1 km/h (3 Bft)
28.12.2010 15:20 -0,8 C 86 % 1020,6 hPa 0,0 mm 4,8 km/h (1 Bft) O-SO 112 10 min 0 UV-I 69 W/m 14,5 km/h (3 Bft)
28.12.2010 15:30 -0,8 C 86 % 1020,7 hPa 0,0 mm 4,8 km/h (1 Bft) O 90 10 min 0 UV-I 56 W/m 14,5 km/h (3 Bft)
28.12.2010 15:40 -0,9 C 86 % 1020,8 hPa 0,0 mm 4,8 km/h (1 Bft) O-SO 112 10 min 0 UV-I 47 W/m 9,7 km/h (2 Bft)
28.12.2010 15:50 -0,9 C 86 % 1020,8 hPa 0,0 mm 3,2 km/h (1 Bft) O 90 10 min 0 UV-I 37 W/m 12,9 km/h (3 Bft)
28.12.2010 16:00 -1,1 C 85 % 1020,9 hPa 0,0 mm 3,5 km/h (1 Bft) O-SO 106 10 min 0 UV-I 18 W/m 8,0 km/h (2 Bft)
28.12.2010 16:10 -1,2 C 85 % 1021,0 hPa 0,0 mm 6,4 km/h (2 Bft) O-SO 112 0 min 0 UV-I 14 W/m 19,3 km/h (3 Bft)
28.12.2010 16:20 -1,3 C 85 % 1021,0 hPa 0,0 mm 6,4 km/h (2 Bft) O-SO 112 0 min 0 UV-I 7 W/m 19,3 km/h (3 Bft)
28.12.2010 16:30 -1,5 C 85 % 1021,0 hPa 0,0 mm 4,8 km/h (1 Bft) O-SO 112 0 min 0 UV-I 0 W/m 14,5 km/h (3 Bft)
28.12.2010 16:40 -1,7 C 85 % 1021,0 hPa 0,0 mm 3,2 km/h (1 Bft) O 90 0 min 0 UV-I 0 W/m 8,0 km/h (2 Bft)
28.12.2010 16:50 -1,8 C 85 % 1021,1 hPa 0,0 mm 6,4 km/h (2 Bft) O-SO 112 0 min 0 UV-I 0 W/m 16,1 km/h (3 Bft)
28.12.2010 17:00 -1,9 C 86 % 1021,1 hPa 0,0 mm 4,8 km/h (1 Bft) O-SO 112 0 min 0 UV-I 0 W/m 14,5 km/h (3 Bft)
28.12.2010 17:10 -2,1 C 86 % 1021,1 hPa 0,0 mm 4,8 km/h (1 Bft) O-SO 112 0 min 0 UV-I 0 W/m 12,9 km/h (3 Bft)
28.12.2010 17:20 -2,2 C 86 % 1021,2 hPa 0,0 mm 3,2 km/h (1 Bft) O-SO 112 0 min 0 UV-I 0 W/m 8,0 km/h (2 Bft)
28.12.2010 17:30 -2,3 C 86 % 1021,2 hPa 0,0 mm 4,8 km/h (1 Bft) O-SO 112 0 min 0 UV-I 0 W/m 14,5 km/h (3 Bft)
28.12.2010 17:40 -2,3 C 86 % 1021,2 hPa 0,0 mm 3,2 km/h (1 Bft) O-SO 112 0 min 0 UV-I 0 W/m 9,7 km/h (2 Bft)
28.12.2010 17:50 -2,4 C 87 % 1021,3 hPa 0,0 mm 4,8 km/h (1 Bft) O-SO 112 0 min 0 UV-I 0 W/m 9,7 km/h (2 Bft)
28.12.2010 18:00 -2,5 C 87 % 1021,3 hPa 0,0 mm 3,2 km/h (1 Bft) O-SO 112 0 min 0 UV-I 0 W/m 14,5 km/h (3 Bft)
28.12.2010 18:10 -2,6 C 87 % 1021,1 hPa 0,0 mm 3,2 km/h (1 Bft) O-SO 112 0 min 0 UV-I 0 W/m 9,7 km/h (2 Bft)
28.12.2010 18:20 -2,6 C 87 % 1021,2 hPa 0,0 mm 3,2 km/h (1 Bft) O-SO 112 0 min 0 UV-I 0 W/m 9,7 km/h (2 Bft)
28.12.2010 18:30 -2,7 C 87 % 1021,3 hPa 0,0 mm 3,2 km/h (1 Bft) O-SO 112 0 min 0 UV-I 0 W/m 9,7 km/h (2 Bft)
28.12.2010 18:40 -2,7 C 87 % 1021,5 hPa 0,0 mm 3,2 km/h (1 Bft) O-SO 112 0 min 0 UV-I 0 W/m 11,3 km/h (2 Bft)
28.12.2010 18:50 -2,7 C 87 % 1021,7 hPa 0,0 mm 4,8 km/h (1 Bft) O-SO 112 0 min 0 UV-I 0 W/m 16,1 km/h (3 Bft)
28.12.2010 19:00 -2,7 C 88 % 1021,8 hPa 0,0 mm 4,8 km/h (1 Bft) O-SO 112 0 min 0 UV-I 0 W/m 19,3 km/h (3 Bft)
28.12.2010 19:10 -2,7 C 88 % 1021,8 hPa 0,0 mm 4,8 km/h (1 Bft) SO 135 0 min 0 UV-I 0 W/m 12,9 km/h (3 Bft)
28.12.2010 19:20 -2,7 C 88 % 1021,9 hPa 0,0 mm 6,4 km/h (2 Bft) O-SO 112 0 min 0 UV-I 0 W/m 17,7 km/h (3 Bft)
28.12.2010 19:30 -2,8 C 88 % 1021,9 hPa 0,0 mm 4,8 km/h (1 Bft) O-SO 112 0 min 0 UV-I 0 W/m 14,5 km/h (3 Bft)
28.12.2010 19:40 -2,8 C 88 % 1022,1 hPa 0,0 mm 6,4 km/h (2 Bft) O-SO 112 0 min 0 UV-I 0 W/m 19,3 km/h (3 Bft)
28.12.2010 19:50 -2,8 C 88 % 1022,2 hPa 0,0 mm 4,8 km/h (1 Bft) O-SO 112 0 min 0 UV-I 0 W/m 16,1 km/h (3 Bft)
28.12.2010 20:00 -2,9 C 88 % 1022,3 hPa 0,0 mm 3,2 km/h (1 Bft) SO 135 0 min 0 UV-I 0 W/m 9,7 km/h (2 Bft)
28.12.2010 20:10 -2,9 C 88 % 1022,2 hPa 0,0 mm 3,2 km/h (1 Bft) O-SO 112 0 min 0 UV-I 0 W/m 11,3 km/h (2 Bft)
28.12.2010 20:20 -3,1 C 88 % 1022,2 hPa 0,0 mm 3,2 km/h (1 Bft) O 90 0 min 0 UV-I 0 W/m 9,7 km/h (2 Bft)
28.12.2010 20:30 -3,2 C 88 % 1022,2 hPa 0,0 mm 4,8 km/h (1 Bft) O-SO 112 0 min 0 UV-I 0 W/m 14,5 km/h (3 Bft)
28.12.2010 20:40 -3,2 C 88 % 1022,4 hPa 0,0 mm 3,2 km/h (1 Bft) O 90 0 min 0 UV-I 0 W/m 11,3 km/h (2 Bft)
28.12.2010 20:50 -3,3 C 88 % 1022,4 hPa 0,0 mm 3,2 km/h (1 Bft) O 90 0 min 0 UV-I 0 W/m 6,4 km/h (2 Bft)
28.12.2010 21:00 -3,3 C 88 % 1022,3 hPa 0,0 mm 1,6 km/h (1 Bft) O-SO 112 0 min 0 UV-I 0 W/m 9,7 km/h (2 Bft)
28.12.2010 21:10 -3,4 C 88 % 1022,4 hPa 0,0 mm 3,2 km/h (1 Bft) O-SO 112 0 min 0 UV-I 0 W/m 8,0 km/h (2 Bft)
28.12.2010 21:20 -3,6 C 88 % 1022,2 hPa 0,0 mm 3,2 km/h (1 Bft) O-SO 112 0 min 0 UV-I 0 W/m 8,0 km/h (2 Bft)
28.12.2010 21:30 -3,6 C 88 % 1022,3 hPa 0,0 mm 3,2 km/h (1 Bft) O-SO 112 0 min 0 UV-I 0 W/m 8,0 km/h (2 Bft)
28.12.2010 21:40 -3,7 C 88 % 1022,3 hPa 0,0 mm 4,8 km/h (1 Bft) O-SO 112 0 min 0 UV-I 0 W/m 9,7 km/h (2 Bft)
28.12.2010 21:50 -3,7 C 88 % 1022,4 hPa 0,0 mm 4,8 km/h (1 Bft) O-SO 112 0 min 0 UV-I 0 W/m 11,3 km/h (2 Bft)
28.12.2010 22:00 -3,7 C 88 % 1022,4 hPa 0,0 mm 4,8 km/h (1 Bft) O-SO 112 0 min 0 UV-I 0 W/m 16,1 km/h (3 Bft)
28.12.2010 22:10 -3,7 C 88 % 1022,5 hPa 0,0 mm 4,8 km/h (1 Bft) O-SO 112 0 min 0 UV-I 0 W/m 14,5 km/h (3 Bft)
28.12.2010 22:20 -3,7 C 88 % 1022,4 hPa 0,0 mm 4,8 km/h (1 Bft) O 90 0 min 0 UV-I 0 W/m 11,3 km/h (2 Bft)
28.12.2010 22:30 -3,7 C 88 % 1022,2 hPa 0,0 mm 4,8 km/h (1 Bft) O-SO 112 0 min 0 UV-I 0 W/m 11,3 km/h (2 Bft)
28.12.2010 22:40 -3,7 C 89 % 1022,4 hPa 0,0 mm 4,8 km/h (1 Bft) O-SO 112 0 min 0 UV-I 0 W/m 16,1 km/h (3 Bft)
28.12.2010 22:50 -3,7 C 89 % 1022,4 hPa 0,0 mm 4,8 km/h (1 Bft) O-SO 112 0 min 0 UV-I 0 W/m 11,3 km/h (2 Bft)
28.12.2010 23:00 -3,8 C 89 % 1022,4 hPa 0,0 mm 6,4 km/h (2 Bft) O-SO 112 0 min 0 UV-I 0 W/m 16,1 km/h (3 Bft)
28.12.2010 23:10 -3,8 C 89 % 1022,5 hPa 0,0 mm 6,4 km/h (2 Bft) O 90 0 min 0 UV-I 0 W/m 14,5 km/h (3 Bft)
28.12.2010 23:20 -3,7 C 89 % 1022,4 hPa 0,0 mm 8,0 km/h (2 Bft) O-SO 112 0 min 0 UV-I 0 W/m 20,9 km/h (4 Bft)
28.12.2010 23:30 -3,7 C 89 % 1022,4 hPa 0,0 mm 6,4 km/h (2 Bft) O-SO 112 0 min 0 UV-I 0 W/m 12,9 km/h (3 Bft)
28.12.2010 23:40 -3,7 C 89 % 1022,4 hPa 0,0 mm 6,4 km/h (2 Bft) O-SO 112 0 min 0 UV-I 0 W/m 14,5 km/h (3 Bft)
28.12.2010 23:50 -3,7 C 89 % 1022,4 hPa 0,0 mm 6,4 km/h (2 Bft) O-SO 112 0 min 0 UV-I 0 W/m 12,9 km/h (3 Bft)
_ Min-Zeit 22:00 16:00 06:50 - 00:00 - - - - - 00:00
Minimum _ -3,8 C 85 % 1018,5 hPa - 0,0 km/h (0 Bft) - - - - - 0,0 km/h (0 Bft)
_ Max-Zeit 13:00 00:10 22:10 00:00 23:20 - - 08:50 12:20 12:30 23:20
Maximum _ -0,1 C 93 % 1022,5 hPa 0,0 mm 8,0 km/h
O-SO (2 Bft)
- - 10 min 1 UV-I 216 W/m 20,9 km/h
O (4 Bft)
Durchschnitt _ -1,8 C 90 % 1020,4 hPa #0,0 mm 3,0 km/h (1 Bft) O-SO - #2:40 h 1 UV-I 83 W/m 8,8 km/h (2 Bft)